Huvudsida
METAR-TAF:

METAR-TAF

Flygplatser :

Førde flygplats. Bringeland

Førde, Norge

latitud: 61-27N, longitud: 005-52E, höjd: 150 m

Aktuellt väderrapport

Denna rapport gjordes för 43 minuter sedan, klockan 20:50 UTC
Vind 5 kt från syd/sydväst
Temperatur 1°C
Fuktighet 93%
Tryck 1031 hPa
Sikt: 3000 m
lätt regn, snö

METAR: ENBL 192050Z 20005KT 3000 -RASN VV014 01/00 Q1031

Tid: 22:33 (21:33 UTC)


TAF: saknas

Aktuella väderrapporter och prognoser från 4000 flygplatser (METAR- och TAF-rapporter).

De tillgängliga stationerna syns som gula och röda prickar på kartan.

För musen över prickarna för att se namnen på stationerna.

Klicka sedan för att få väderrapporter och prognoser.

För att ändra kartan: Klicka på de gröna knapparna med ett svart kors på för att zooma in; den gröna knappen med ett streck på för att zooma ut; eller på de gröna pilarna för angränsande kartor.


METAR-TAF: